sensor_id;sensor_type;location;lat;lon;timestamp;P1;durP1;ratioP1;P2;durP2;ratioP2
177;SDS011;77;48.792;9.032;2023-03-12T00:02:24;9.30;;;5.60;;
177;SDS011;77;48.792;9.032;2023-03-12T00:04:49;14.43;;;6.47;;
177;SDS011;77;48.792;9.032;2023-03-12T00:07:14;9.67;;;5.83;;
177;SDS011;77;48.792;9.032;2023-03-12T00:09:40;10.33;;;6.13;;
177;SDS011;77;48.792;9.032;2023-03-12T00:12:07;13.70;;;8.10;;
177;SDS011;77;48.792;9.032;2023-03-12T00:14:32;13.67;;;7.30;;
177;SDS011;77;48.792;9.032;2023-03-12T00:16:58;11.70;;;7.00;;
177;SDS011;77;48.792;9.032;2023-03-12T00:19:23;11.03;;;6.70;;
177;SDS011;77;48.792;9.032;2023-03-12T00:21:49;14.87;;;7.60;;
177;SDS011;77;48.792;9.032;2023-03-12T00:24:14;13.43;;;7.37;;
177;SDS011;77;48.792;9.032;2023-03-12T00:26:39;14.27;;;8.40;;
177;SDS011;77;48.792;9.032;2023-03-12T00:29:06;14.20;;;7.70;;
177;SDS011;77;48.792;9.032;2023-03-12T00:31:32;17.25;;;7.70;;
177;SDS011;77;48.792;9.032;2023-03-12T00:33:57;14.60;;;7.33;;
177;SDS011;77;48.792;9.032;2023-03-12T00:36:24;17.13;;;6.97;;
177;SDS011;77;48.792;9.032;2023-03-12T00:38:49;13.07;;;7.13;;
177;SDS011;77;48.792;9.032;2023-03-12T00:41:15;9.70;;;6.50;;
177;SDS011;77;48.792;9.032;2023-03-12T00:43:40;13.70;;;6.47;;
177;SDS011;77;48.792;9.032;2023-03-12T00:46:06;11.50;;;6.50;;
177;SDS011;77;48.792;9.032;2023-03-12T00:48:32;12.00;;;7.03;;
177;SDS011;77;48.792;9.032;2023-03-12T00:50:57;13.20;;;6.47;;
177;SDS011;77;48.792;9.032;2023-03-12T00:53:22;12.40;;;6.20;;
177;SDS011;77;48.792;9.032;2023-03-12T00:55:48;12.60;;;6.27;;
177;SDS011;77;48.792;9.032;2023-03-12T00:58:13;11.33;;;6.10;;
177;SDS011;77;48.792;9.032;2023-03-12T01:00:38;9.83;;;5.83;;
177;SDS011;77;48.792;9.032;2023-03-12T01:03:05;13.83;;;5.90;;
177;SDS011;77;48.792;9.032;2023-03-12T01:05:30;10.67;;;6.07;;
177;SDS011;77;48.792;9.032;2023-03-12T01:07:55;11.80;;;6.20;;
177;SDS011;77;48.792;9.032;2023-03-12T01:10:21;11.00;;;6.07;;
177;SDS011;77;48.792;9.032;2023-03-12T01:12:46;15.00;;;6.37;;
177;SDS011;77;48.792;9.032;2023-03-12T01:15:12;10.80;;;6.07;;
177;SDS011;77;48.792;9.032;2023-03-12T01:17:37;13.70;;;6.00;;
177;SDS011;77;48.792;9.032;2023-03-12T01:20:05;11.07;;;6.03;;
177;SDS011;77;48.792;9.032;2023-03-12T01:22:30;12.37;;;5.70;;
177;SDS011;77;48.792;9.032;2023-03-12T01:24:56;11.60;;;6.33;;
177;SDS011;77;48.792;9.032;2023-03-12T01:27:21;13.07;;;6.70;;
177;SDS011;77;48.792;9.032;2023-03-12T01:29:46;20.60;;;9.00;;
177;SDS011;77;48.792;9.032;2023-03-12T01:32:12;21.30;;;10.23;;
177;SDS011;77;48.792;9.032;2023-03-12T01:34:37;18.33;;;8.47;;
177;SDS011;77;48.792;9.032;2023-03-12T01:37:04;19.10;;;8.80;;
177;SDS011;77;48.792;9.032;2023-03-12T01:39:30;21.65;;;10.13;;
177;SDS011;77;48.792;9.032;2023-03-12T01:41:55;22.10;;;10.33;;
177;SDS011;77;48.792;9.032;2023-03-12T01:44:21;30.20;;;14.33;;
177;SDS011;77;48.792;9.032;2023-03-12T01:46:46;31.87;;;15.47;;
177;SDS011;77;48.792;9.032;2023-03-12T01:49:13;21.30;;;10.60;;
177;SDS011;77;48.792;9.032;2023-03-12T01:51:40;15.70;;;8.55;;
177;SDS011;77;48.792;9.032;2023-03-12T01:54:08;15.63;;;7.88;;
177;SDS011;77;48.792;9.032;2023-03-12T01:56:35;14.65;;;7.57;;
177;SDS011;77;48.792;9.032;2023-03-12T01:59:03;13.85;;;7.25;;
177;SDS011;77;48.792;9.032;2023-03-12T02:01:29;15.10;;;7.65;;
177;SDS011;77;48.792;9.032;2023-03-12T02:03:54;14.80;;;7.60;;
177;SDS011;77;48.792;9.032;2023-03-12T02:06:22;14.68;;;7.40;;
177;SDS011;77;48.792;9.032;2023-03-12T02:08:49;13.43;;;6.70;;
177;SDS011;77;48.792;9.032;2023-03-12T02:11:16;11.70;;;6.20;;
177;SDS011;77;48.792;9.032;2023-03-12T02:13:41;10.40;;;6.40;;
177;SDS011;77;48.792;9.032;2023-03-12T02:16:06;12.00;;;6.77;;
177;SDS011;77;48.792;9.032;2023-03-12T02:18:33;13.57;;;6.67;;
177;SDS011;77;48.792;9.032;2023-03-12T02:21:00;13.20;;;6.53;;
177;SDS011;77;48.792;9.032;2023-03-12T02:23:29;13.50;;;6.97;;
177;SDS011;77;48.792;9.032;2023-03-12T02:25:56;12.60;;;6.40;;
177;SDS011;77;48.792;9.032;2023-03-12T02:28:22;12.93;;;6.40;;
177;SDS011;77;48.792;9.032;2023-03-12T02:30:49;8.70;;;5.47;;
177;SDS011;77;48.792;9.032;2023-03-12T02:33:15;13.23;;;5.73;;
177;SDS011;77;48.792;9.032;2023-03-12T02:35:40;9.87;;;5.63;;
177;SDS011;77;48.792;9.032;2023-03-12T02:40:46;9.43;;;5.60;;
177;SDS011;77;48.792;9.032;2023-03-12T02:43:19;9.70;;;5.10;;
177;SDS011;77;48.792;9.032;2023-03-12T02:45:45;10.70;;;5.40;;
177;SDS011;77;48.792;9.032;2023-03-12T02:48:11;11.97;;;5.20;;
177;SDS011;77;48.792;9.032;2023-03-12T02:50:36;10.77;;;5.47;;
177;SDS011;77;48.792;9.032;2023-03-12T02:53:01;10.10;;;5.00;;
177;SDS011;77;48.792;9.032;2023-03-12T02:55:27;12.20;;;5.20;;
177;SDS011;77;48.792;9.032;2023-03-12T02:57:52;11.67;;;4.93;;
177;SDS011;77;48.792;9.032;2023-03-12T03:00:19;14.00;;;5.07;;
177;SDS011;77;48.792;9.032;2023-03-12T03:02:44;8.40;;;4.80;;
177;SDS011;77;48.792;9.032;2023-03-12T03:05:10;10.33;;;5.30;;
177;SDS011;77;48.792;9.032;2023-03-12T03:07:35;10.10;;;5.17;;
177;SDS011;77;48.792;9.032;2023-03-12T03:10:01;9.23;;;5.50;;
177;SDS011;77;48.792;9.032;2023-03-12T03:12:26;10.07;;;5.23;;
177;SDS011;77;48.792;9.032;2023-03-12T03:14:51;13.57;;;5.47;;
177;SDS011;77;48.792;9.032;2023-03-12T03:17:18;9.97;;;5.50;;
177;SDS011;77;48.792;9.032;2023-03-12T03:19:43;9.87;;;5.53;;
177;SDS011;77;48.792;9.032;2023-03-12T03:22:08;10.93;;;5.70;;
177;SDS011;77;48.792;9.032;2023-03-12T03:24:33;12.43;;;5.50;;
177;SDS011;77;48.792;9.032;2023-03-12T03:26:59;11.00;;;5.17;;
177;SDS011;77;48.792;9.032;2023-03-12T03:29:24;12.67;;;5.60;;
177;SDS011;77;48.792;9.032;2023-03-12T03:31:49;9.57;;;5.20;;
177;SDS011;77;48.792;9.032;2023-03-12T03:34:16;9.30;;;5.17;;
177;SDS011;77;48.792;9.032;2023-03-12T03:36:41;9.60;;;5.30;;
177;SDS011;77;48.792;9.032;2023-03-12T03:39:07;9.33;;;5.40;;
177;SDS011;77;48.792;9.032;2023-03-12T03:41:32;10.73;;;5.70;;
177;SDS011;77;48.792;9.032;2023-03-12T03:43:57;8.37;;;5.30;;
177;SDS011;77;48.792;9.032;2023-03-12T03:46:23;9.30;;;5.30;;
177;SDS011;77;48.792;9.032;2023-03-12T03:48:48;12.50;;;5.40;;
177;SDS011;77;48.792;9.032;2023-03-12T03:51:15;9.27;;;5.40;;
177;SDS011;77;48.792;9.032;2023-03-12T03:53:40;9.43;;;5.47;;
177;SDS011;77;48.792;9.032;2023-03-12T03:56:06;8.10;;;5.60;;
177;SDS011;77;48.792;9.032;2023-03-12T03:58:31;9.27;;;5.40;;
177;SDS011;77;48.792;9.032;2023-03-12T04:00:56;8.70;;;5.40;;
177;SDS011;77;48.792;9.032;2023-03-12T04:03:22;12.20;;;5.80;;
177;SDS011;77;48.792;9.032;2023-03-12T04:05:52;9.40;;;5.63;;
177;SDS011;77;48.792;9.032;2023-03-12T04:08:19;12.10;;;6.47;;
177;SDS011;77;48.792;9.032;2023-03-12T04:10:44;8.60;;;5.47;;
177;SDS011;77;48.792;9.032;2023-03-12T04:13:09;8.10;;;5.37;;
177;SDS011;77;48.792;9.032;2023-03-12T04:15:34;19.30;;;6.47;;
177;SDS011;77;48.792;9.032;2023-03-12T04:18:00;10.50;;;5.90;;
177;SDS011;77;48.792;9.032;2023-03-12T04:20:25;8.73;;;5.50;;
177;SDS011;77;48.792;9.032;2023-03-12T04:22:50;11.47;;;5.87;;
177;SDS011;77;48.792;9.032;2023-03-12T04:25:17;8.43;;;5.50;;
177;SDS011;77;48.792;9.032;2023-03-12T04:27:42;10.37;;;5.70;;
177;SDS011;77;48.792;9.032;2023-03-12T04:30:08;9.70;;;6.20;;
177;SDS011;77;48.792;9.032;2023-03-12T04:32:33;12.47;;;6.10;;
177;SDS011;77;48.792;9.032;2023-03-12T04:34:58;12.00;;;6.20;;
177;SDS011;77;48.792;9.032;2023-03-12T04:37:24;10.77;;;6.53;;
177;SDS011;77;48.792;9.032;2023-03-12T04:39:49;9.70;;;6.20;;
177;SDS011;77;48.792;9.032;2023-03-12T04:42:16;11.50;;;6.40;;
177;SDS011;77;48.792;9.032;2023-03-12T04:44:41;9.50;;;5.97;;
177;SDS011;77;48.792;9.032;2023-03-12T04:47:07;11.73;;;6.23;;
177;SDS011;77;48.792;9.032;2023-03-12T04:49:32;12.30;;;6.33;;
177;SDS011;77;48.792;9.032;2023-03-12T04:51:57;10.27;;;6.50;;
177;SDS011;77;48.792;9.032;2023-03-12T04:54:23;10.30;;;6.13;;
177;SDS011;77;48.792;9.032;2023-03-12T04:56:48;11.50;;;6.20;;
177;SDS011;77;48.792;9.032;2023-03-12T04:59:15;10.50;;;6.30;;
177;SDS011;77;48.792;9.032;2023-03-12T05:01:40;8.90;;;5.70;;
177;SDS011;77;48.792;9.032;2023-03-12T05:04:06;12.27;;;6.83;;
177;SDS011;77;48.792;9.032;2023-03-12T05:06:31;11.13;;;6.43;;
177;SDS011;77;48.792;9.032;2023-03-12T05:08:57;11.80;;;6.60;;
177;SDS011;77;48.792;9.032;2023-03-12T05:11:22;13.10;;;6.23;;
177;SDS011;77;48.792;9.032;2023-03-12T05:13:48;11.13;;;6.43;;
177;SDS011;77;48.792;9.032;2023-03-12T05:16:15;9.73;;;6.27;;
177;SDS011;77;48.792;9.032;2023-03-12T05:18:40;12.07;;;6.40;;
177;SDS011;77;48.792;9.032;2023-03-12T05:21:07;12.30;;;7.07;;
177;SDS011;77;48.792;9.032;2023-03-12T05:23:32;11.90;;;6.40;;
177;SDS011;77;48.792;9.032;2023-03-12T05:25:58;11.13;;;6.83;;
177;SDS011;77;48.792;9.032;2023-03-12T05:28:23;12.40;;;7.57;;
177;SDS011;77;48.792;9.032;2023-03-12T05:30:49;9.97;;;6.60;;
177;SDS011;77;48.792;9.032;2023-03-12T05:33:15;14.47;;;7.20;;
177;SDS011;77;48.792;9.032;2023-03-12T05:35:40;11.40;;;6.70;;
177;SDS011;77;48.792;9.032;2023-03-12T05:38:06;10.40;;;6.47;;
177;SDS011;77;48.792;9.032;2023-03-12T05:40:31;14.47;;;6.70;;
177;SDS011;77;48.792;9.032;2023-03-12T05:42:56;11.47;;;6.83;;
177;SDS011;77;48.792;9.032;2023-03-12T05:45:22;11.17;;;6.50;;
177;SDS011;77;48.792;9.032;2023-03-12T05:47:47;11.83;;;6.20;;
177;SDS011;77;48.792;9.032;2023-03-12T05:50:16;10.80;;;6.27;;
177;SDS011;77;48.792;9.032;2023-03-12T05:52:44;11.90;;;6.20;;
177;SDS011;77;48.792;9.032;2023-03-12T05:55:10;11.63;;;6.00;;
177;SDS011;77;48.792;9.032;2023-03-12T05:57:35;11.10;;;6.10;;
177;SDS011;77;48.792;9.032;2023-03-12T06:00:00;12.50;;;6.57;;
177;SDS011;77;48.792;9.032;2023-03-12T06:02:32;10.10;;;6.13;;
177;SDS011;77;48.792;9.032;2023-03-12T06:05:00;10.50;;;6.40;;
177;SDS011;77;48.792;9.032;2023-03-12T06:07:27;9.87;;;6.23;;
177;SDS011;77;48.792;9.032;2023-03-12T06:09:52;11.83;;;6.30;;
177;SDS011;77;48.792;9.032;2023-03-12T06:12:17;12.43;;;6.43;;
177;SDS011;77;48.792;9.032;2023-03-12T06:14:45;9.70;;;5.87;;
177;SDS011;77;48.792;9.032;2023-03-12T06:17:11;9.33;;;5.80;;
177;SDS011;77;48.792;9.032;2023-03-12T06:19:36;10.80;;;6.10;;
177;SDS011;77;48.792;9.032;2023-03-12T06:22:01;12.03;;;6.43;;
177;SDS011;77;48.792;9.032;2023-03-12T06:24:28;12.90;;;6.63;;
177;SDS011;77;48.792;9.032;2023-03-12T06:26:53;11.80;;;6.53;;
177;SDS011;77;48.792;9.032;2023-03-12T06:29:19;10.73;;;6.10;;
177;SDS011;77;48.792;9.032;2023-03-12T06:31:44;11.40;;;6.40;;
177;SDS011;77;48.792;9.032;2023-03-12T06:34:11;11.60;;;6.30;;
177;SDS011;77;48.792;9.032;2023-03-12T06:36:36;12.83;;;6.50;;
177;SDS011;77;48.792;9.032;2023-03-12T06:39:02;8.93;;;5.93;;
177;SDS011;77;48.792;9.032;2023-03-12T06:41:29;10.93;;;6.07;;
177;SDS011;77;48.792;9.032;2023-03-12T06:43:54;9.03;;;5.67;;
177;SDS011;77;48.792;9.032;2023-03-12T06:46:29;9.80;;;6.20;;
177;SDS011;77;48.792;9.032;2023-03-12T06:48:56;9.03;;;5.70;;
177;SDS011;77;48.792;9.032;2023-03-12T06:51:21;10.37;;;5.80;;
177;SDS011;77;48.792;9.032;2023-03-12T06:53:47;9.97;;;6.17;;
177;SDS011;77;48.792;9.032;2023-03-12T06:56:15;10.70;;;5.80;;
177;SDS011;77;48.792;9.032;2023-03-12T06:58:42;12.73;;;7.00;;
177;SDS011;77;48.792;9.032;2023-03-12T07:01:07;9.80;;;6.20;;
177;SDS011;77;48.792;9.032;2023-03-12T07:03:32;10.17;;;6.03;;
177;SDS011;77;48.792;9.032;2023-03-12T07:05:58;9.90;;;5.90;;
177;SDS011;77;48.792;9.032;2023-03-12T07:08:24;9.40;;;6.13;;
177;SDS011;77;48.792;9.032;2023-03-12T07:10:49;13.00;;;6.13;;
177;SDS011;77;48.792;9.032;2023-03-12T07:13:14;10.77;;;6.23;;
177;SDS011;77;48.792;9.032;2023-03-12T07:15:41;10.20;;;6.53;;
177;SDS011;77;48.792;9.032;2023-03-12T07:18:07;14.13;;;6.60;;
177;SDS011;77;48.792;9.032;2023-03-12T07:20:34;10.30;;;6.10;;
177;SDS011;77;48.792;9.032;2023-03-12T07:23:00;10.90;;;5.90;;
177;SDS011;77;48.792;9.032;2023-03-12T07:25:25;10.20;;;6.13;;
177;SDS011;77;48.792;9.032;2023-03-12T07:27:51;10.20;;;6.20;;
177;SDS011;77;48.792;9.032;2023-03-12T07:30:16;13.10;;;5.90;;
177;SDS011;77;48.792;9.032;2023-03-12T07:32:43;10.87;;;6.03;;
177;SDS011;77;48.792;9.032;2023-03-12T07:35:09;9.10;;;6.00;;
177;SDS011;77;48.792;9.032;2023-03-12T07:37:37;11.43;;;6.60;;
177;SDS011;77;48.792;9.032;2023-03-12T07:40:03;12.67;;;6.97;;
177;SDS011;77;48.792;9.032;2023-03-12T07:42:29;9.93;;;6.20;;
177;SDS011;77;48.792;9.032;2023-03-12T07:44:54;14.80;;;7.80;;
177;SDS011;77;48.792;9.032;2023-03-12T07:47:19;13.00;;;7.10;;
177;SDS011;77;48.792;9.032;2023-03-12T07:49:48;13.90;;;7.30;;
177;SDS011;77;48.792;9.032;2023-03-12T07:52:19;14.03;;;7.23;;
177;SDS011;77;48.792;9.032;2023-03-12T07:54:47;13.83;;;8.20;;
177;SDS011;77;48.792;9.032;2023-03-12T07:57:12;14.60;;;8.13;;
177;SDS011;77;48.792;9.032;2023-03-12T07:59:37;12.97;;;7.30;;
177;SDS011;77;48.792;9.032;2023-03-12T08:02:03;13.27;;;7.70;;
177;SDS011;77;48.792;9.032;2023-03-12T08:04:28;12.83;;;7.40;;
177;SDS011;77;48.792;9.032;2023-03-12T08:06:55;15.13;;;8.40;;
177;SDS011;77;48.792;9.032;2023-03-12T08:09:20;15.13;;;8.23;;
177;SDS011;77;48.792;9.032;2023-03-12T08:11:45;15.67;;;7.80;;
177;SDS011;77;48.792;9.032;2023-03-12T08:14:11;12.40;;;6.67;;
177;SDS011;77;48.792;9.032;2023-03-12T08:16:36;14.03;;;7.40;;
177;SDS011;77;48.792;9.032;2023-03-12T08:19:01;13.10;;;7.60;;
177;SDS011;77;48.792;9.032;2023-03-12T08:21:26;13.53;;;7.80;;
177;SDS011;77;48.792;9.032;2023-03-12T08:23:53;12.37;;;7.17;;
177;SDS011;77;48.792;9.032;2023-03-12T08:26:18;12.37;;;7.53;;
177;SDS011;77;48.792;9.032;2023-03-12T08:28:43;13.70;;;7.30;;
177;SDS011;77;48.792;9.032;2023-03-12T08:31:09;13.33;;;8.10;;
177;SDS011;77;48.792;9.032;2023-03-12T08:33:34;16.30;;;8.00;;
177;SDS011;77;48.792;9.032;2023-03-12T08:36:00;12.27;;;7.13;;
177;SDS011;77;48.792;9.032;2023-03-12T08:38:25;11.90;;;6.70;;
177;SDS011;77;48.792;9.032;2023-03-12T08:40:55;13.00;;;6.70;;
177;SDS011;77;48.792;9.032;2023-03-12T08:43:20;12.90;;;7.77;;
177;SDS011;77;48.792;9.032;2023-03-12T08:45:45;12.83;;;7.30;;
177;SDS011;77;48.792;9.032;2023-03-12T08:48:10;15.40;;;9.07;;
177;SDS011;77;48.792;9.032;2023-03-12T08:50:36;14.17;;;8.33;;
177;SDS011;77;48.792;9.032;2023-03-12T08:53:01;13.70;;;8.40;;
177;SDS011;77;48.792;9.032;2023-03-12T08:55:26;13.50;;;7.87;;
177;SDS011;77;48.792;9.032;2023-03-12T08:57:53;13.03;;;7.67;;
177;SDS011;77;48.792;9.032;2023-03-12T09:00:18;12.83;;;7.50;;
177;SDS011;77;48.792;9.032;2023-03-12T09:02:44;15.80;;;8.73;;
177;SDS011;77;48.792;9.032;2023-03-12T09:05:09;13.80;;;8.03;;
177;SDS011;77;48.792;9.032;2023-03-12T09:07:34;13.70;;;7.33;;
177;SDS011;77;48.792;9.032;2023-03-12T09:09:59;14.77;;;8.03;;
177;SDS011;77;48.792;9.032;2023-03-12T09:12:25;14.10;;;7.80;;
177;SDS011;77;48.792;9.032;2023-03-12T09:14:51;14.30;;;8.00;;
177;SDS011;77;48.792;9.032;2023-03-12T09:17:17;13.97;;;8.70;;
177;SDS011;77;48.792;9.032;2023-03-12T09:19:42;14.50;;;7.80;;
177;SDS011;77;48.792;9.032;2023-03-12T09:22:07;15.50;;;8.50;;
177;SDS011;77;48.792;9.032;2023-03-12T09:24:33;16.00;;;9.13;;
177;SDS011;77;48.792;9.032;2023-03-12T09:26:58;13.83;;;7.13;;
177;SDS011;77;48.792;9.032;2023-03-12T09:29:23;15.13;;;8.40;;
177;SDS011;77;48.792;9.032;2023-03-12T09:31:50;14.90;;;8.40;;
177;SDS011;77;48.792;9.032;2023-03-12T09:34:15;16.47;;;8.70;;
177;SDS011;77;48.792;9.032;2023-03-12T09:36:41;12.40;;;7.80;;
177;SDS011;77;48.792;9.032;2023-03-12T09:39:06;14.90;;;8.43;;
177;SDS011;77;48.792;9.032;2023-03-12T09:41:32;13.20;;;7.60;;
177;SDS011;77;48.792;9.032;2023-03-12T09:44:00;12.83;;;7.87;;
177;SDS011;77;48.792;9.032;2023-03-12T09:46:27;13.40;;;7.40;;
177;SDS011;77;48.792;9.032;2023-03-12T09:48:55;13.77;;;7.87;;
177;SDS011;77;48.792;9.032;2023-03-12T09:51:22;15.10;;;8.70;;
177;SDS011;77;48.792;9.032;2023-03-12T09:53:50;16.20;;;9.20;;
177;SDS011;77;48.792;9.032;2023-03-12T09:56:18;12.00;;;7.13;;
177;SDS011;77;48.792;9.032;2023-03-12T09:58:44;16.70;;;8.70;;
177;SDS011;77;48.792;9.032;2023-03-12T10:01:14;13.20;;;7.70;;
177;SDS011;77;48.792;9.032;2023-03-12T10:03:47;12.77;;;7.60;;
177;SDS011;77;48.792;9.032;2023-03-12T10:06:18;13.50;;;7.10;;
177;SDS011;77;48.792;9.032;2023-03-12T10:08:50;11.23;;;6.90;;
177;SDS011;77;48.792;9.032;2023-03-12T10:11:20;12.53;;;7.63;;
177;SDS011;77;48.792;9.032;2023-03-12T10:13:51;10.70;;;6.90;;
177;SDS011;77;48.792;9.032;2023-03-12T10:16:21;12.77;;;6.97;;
177;SDS011;77;48.792;9.032;2023-03-12T10:18:54;11.57;;;6.93;;
177;SDS011;77;48.792;9.032;2023-03-12T10:21:23;11.10;;;6.50;;
177;SDS011;77;48.792;9.032;2023-03-12T10:23:57;11.23;;;6.80;;
177;SDS011;77;48.792;9.032;2023-03-12T10:26:25;11.57;;;6.40;;
177;SDS011;77;48.792;9.032;2023-03-12T10:28:54;10.60;;;6.23;;
177;SDS011;77;48.792;9.032;2023-03-12T10:31:22;9.83;;;5.73;;
177;SDS011;77;48.792;9.032;2023-03-12T10:33:50;10.00;;;5.90;;
177;SDS011;77;48.792;9.032;2023-03-12T10:36:16;11.90;;;5.30;;
177;SDS011;77;48.792;9.032;2023-03-12T10:38:43;9.03;;;5.20;;
177;SDS011;77;48.792;9.032;2023-03-12T10:41:13;8.57;;;4.40;;
177;SDS011;77;48.792;9.032;2023-03-12T10:43:38;6.73;;;3.90;;
177;SDS011;77;48.792;9.032;2023-03-12T10:48:41;6.70;;;3.43;;
177;SDS011;77;48.792;9.032;2023-03-12T10:51:10;7.17;;;3.00;;
177;SDS011;77;48.792;9.032;2023-03-12T10:53:35;7.17;;;3.07;;
177;SDS011;77;48.792;9.032;2023-03-12T10:56:05;5.60;;;2.60;;
177;SDS011;77;48.792;9.032;2023-03-12T10:58:32;5.97;;;2.97;;
177;SDS011;77;48.792;9.032;2023-03-12T11:00:58;7.40;;;3.00;;
177;SDS011;77;48.792;9.032;2023-03-12T11:03:29;6.10;;;2.60;;
177;SDS011;77;48.792;9.032;2023-03-12T11:05:57;8.53;;;3.17;;
177;SDS011;77;48.792;9.032;2023-03-12T11:08:27;6.53;;;2.63;;
177;SDS011;77;48.792;9.032;2023-03-12T11:11:07;6.03;;;2.87;;
177;SDS011;77;48.792;9.032;2023-03-12T11:13:34;7.70;;;3.10;;
177;SDS011;77;48.792;9.032;2023-03-12T11:16:00;10.27;;;3.10;;
177;SDS011;77;48.792;9.032;2023-03-12T11:18:29;6.53;;;2.50;;
177;SDS011;77;48.792;9.032;2023-03-12T11:20:55;7.40;;;2.70;;
177;SDS011;77;48.792;9.032;2023-03-12T11:23:24;9.47;;;2.77;;
177;SDS011;77;48.792;9.032;2023-03-12T11:25:53;6.43;;;2.60;;
177;SDS011;77;48.792;9.032;2023-03-12T11:28:21;7.77;;;3.00;;
177;SDS011;77;48.792;9.032;2023-03-12T11:30:47;5.30;;;2.60;;
177;SDS011;77;48.792;9.032;2023-03-12T11:33:13;5.17;;;2.30;;
177;SDS011;77;48.792;9.032;2023-03-12T11:35:41;5.27;;;2.47;;
177;SDS011;77;48.792;9.032;2023-03-12T11:38:20;6.40;;;2.60;;
177;SDS011;77;48.792;9.032;2023-03-12T11:40:58;5.87;;;2.73;;
177;SDS011;77;48.792;9.032;2023-03-12T11:46:18;9.90;;;4.80;;
177;SDS011;77;48.792;9.032;2023-03-12T11:48:48;6.67;;;2.70;;
177;SDS011;77;48.792;9.032;2023-03-12T11:51:18;6.40;;;2.80;;
177;SDS011;77;48.792;9.032;2023-03-12T11:53:54;5.60;;;2.60;;
177;SDS011;77;48.792;9.032;2023-03-12T11:56:25;6.13;;;2.60;;
177;SDS011;77;48.792;9.032;2023-03-12T11:58:53;6.90;;;3.33;;
177;SDS011;77;48.792;9.032;2023-03-12T12:01:24;7.10;;;2.50;;
177;SDS011;77;48.792;9.032;2023-03-12T12:03:59;7.87;;;2.60;;
177;SDS011;77;48.792;9.032;2023-03-12T12:06:29;5.50;;;2.30;;
177;SDS011;77;48.792;9.032;2023-03-12T12:09:02;6.50;;;2.60;;
177;SDS011;77;48.792;9.032;2023-03-12T12:11:32;5.60;;;2.33;;
177;SDS011;77;48.792;9.032;2023-03-12T12:14:02;4.77;;;2.33;;
177;SDS011;77;48.792;9.032;2023-03-12T12:16:44;8.53;;;2.50;;
177;SDS011;77;48.792;9.032;2023-03-12T12:19:17;5.90;;;2.50;;
177;SDS011;77;48.792;9.032;2023-03-12T12:21:47;6.07;;;2.70;;
177;SDS011;77;48.792;9.032;2023-03-12T12:24:18;6.00;;;2.30;;
177;SDS011;77;48.792;9.032;2023-03-12T12:26:48;5.67;;;2.73;;
177;SDS011;77;48.792;9.032;2023-03-12T12:29:19;7.37;;;2.70;;
177;SDS011;77;48.792;9.032;2023-03-12T12:31:47;8.67;;;2.77;;
177;SDS011;77;48.792;9.032;2023-03-12T12:37:30;10.07;;;3.10;;
177;SDS011;77;48.792;9.032;2023-03-12T12:40:01;8.67;;;2.57;;
177;SDS011;77;48.792;9.032;2023-03-12T12:42:29;6.60;;;2.50;;
177;SDS011;77;48.792;9.032;2023-03-12T12:44:56;9.37;;;3.07;;
177;SDS011;77;48.792;9.032;2023-03-12T12:52:53;7.40;;;3.10;;
177;SDS011;77;48.792;9.032;2023-03-12T12:55:25;9.63;;;2.63;;
177;SDS011;77;48.792;9.032;2023-03-12T12:57:53;9.60;;;2.80;;
177;SDS011;77;48.792;9.032;2023-03-12T13:00:23;8.57;;;2.60;;
177;SDS011;77;48.792;9.032;2023-03-12T13:02:51;10.20;;;3.50;;
177;SDS011;77;48.792;9.032;2023-03-12T13:05:19;10.40;;;2.83;;
177;SDS011;77;48.792;9.032;2023-03-12T13:07:48;6.37;;;2.90;;
177;SDS011;77;48.792;9.032;2023-03-12T13:13:10;9.50;;;2.90;;
177;SDS011;77;48.792;9.032;2023-03-12T13:15:59;6.80;;;2.70;;
177;SDS011;77;48.792;9.032;2023-03-12T13:18:44;7.80;;;2.40;;
177;SDS011;77;48.792;9.032;2023-03-12T13:21:32;7.57;;;2.60;;
177;SDS011;77;48.792;9.032;2023-03-12T13:24:11;6.67;;;2.40;;
177;SDS011;77;48.792;9.032;2023-03-12T13:26:44;6.60;;;2.53;;
177;SDS011;77;48.792;9.032;2023-03-12T13:29:19;8.63;;;2.87;;
177;SDS011;77;48.792;9.032;2023-03-12T13:31:44;9.87;;;2.70;;
177;SDS011;77;48.792;9.032;2023-03-12T13:37:01;8.17;;;2.80;;
177;SDS011;77;48.792;9.032;2023-03-12T13:39:36;8.83;;;2.80;;
177;SDS011;77;48.792;9.032;2023-03-12T13:44:49;10.93;;;3.57;;
177;SDS011;77;48.792;9.032;2023-03-12T13:47:36;7.63;;;2.90;;
177;SDS011;77;48.792;9.032;2023-03-12T13:50:06;8.07;;;3.07;;
177;SDS011;77;48.792;9.032;2023-03-12T13:52:36;6.53;;;2.63;;
177;SDS011;77;48.792;9.032;2023-03-12T13:55:16;10.57;;;2.90;;
177;SDS011;77;48.792;9.032;2023-03-12T13:57:46;7.60;;;2.60;;
177;SDS011;77;48.792;9.032;2023-03-12T14:00:25;10.17;;;2.80;;
177;SDS011;77;48.792;9.032;2023-03-12T14:02:59;6.57;;;2.80;;
177;SDS011;77;48.792;9.032;2023-03-12T14:05:25;8.97;;;2.60;;
177;SDS011;77;48.792;9.032;2023-03-12T14:10:53;8.07;;;2.77;;
177;SDS011;77;48.792;9.032;2023-03-12T14:16:03;7.90;;;2.80;;
177;SDS011;77;48.792;9.032;2023-03-12T14:18:32;7.53;;;2.50;;
177;SDS011;77;48.792;9.032;2023-03-12T14:20:58;8.83;;;2.90;;
177;SDS011;77;48.792;9.032;2023-03-12T14:23:25;7.30;;;2.77;;
177;SDS011;77;48.792;9.032;2023-03-12T14:25:52;10.50;;;2.70;;
177;SDS011;77;48.792;9.032;2023-03-12T14:28:22;7.87;;;3.00;;
177;SDS011;77;48.792;9.032;2023-03-12T14:30:49;8.03;;;2.93;;
177;SDS011;77;48.792;9.032;2023-03-12T14:33:20;8.13;;;2.83;;
177;SDS011;77;48.792;9.032;2023-03-12T14:35:47;8.27;;;2.90;;
177;SDS011;77;48.792;9.032;2023-03-12T14:38:15;8.10;;;2.73;;
177;SDS011;77;48.792;9.032;2023-03-12T14:40:42;6.90;;;2.47;;
177;SDS011;77;48.792;9.032;2023-03-12T14:43:23;7.33;;;2.80;;
177;SDS011;77;48.792;9.032;2023-03-12T14:45:50;9.80;;;2.97;;
177;SDS011;77;48.792;9.032;2023-03-12T14:48:20;11.57;;;2.60;;
177;SDS011;77;48.792;9.032;2023-03-12T14:53:23;8.37;;;2.70;;
177;SDS011;77;48.792;9.032;2023-03-12T14:55:57;6.03;;;2.30;;
177;SDS011;77;48.792;9.032;2023-03-12T14:58:22;4.93;;;2.30;;
177;SDS011;77;48.792;9.032;2023-03-12T15:00:58;4.03;;;2.40;;
177;SDS011;77;48.792;9.032;2023-03-12T15:03:25;6.70;;;2.67;;
177;SDS011;77;48.792;9.032;2023-03-12T15:06:12;7.77;;;2.63;;
177;SDS011;77;48.792;9.032;2023-03-12T15:08:37;4.20;;;2.27;;
177;SDS011;77;48.792;9.032;2023-03-12T15:11:05;7.50;;;2.30;;
177;SDS011;77;48.792;9.032;2023-03-12T15:13:39;5.23;;;2.00;;
177;SDS011;77;48.792;9.032;2023-03-12T15:16:05;5.00;;;2.50;;
177;SDS011;77;48.792;9.032;2023-03-12T15:18:32;4.93;;;2.30;;
177;SDS011;77;48.792;9.032;2023-03-12T15:21:02;8.13;;;2.73;;
177;SDS011;77;48.792;9.032;2023-03-12T15:23:33;7.43;;;3.03;;
177;SDS011;77;48.792;9.032;2023-03-12T15:26:11;6.63;;;2.50;;
177;SDS011;77;48.792;9.032;2023-03-12T15:28:50;6.50;;;2.40;;
177;SDS011;77;48.792;9.032;2023-03-12T15:31:20;5.30;;;2.47;;
177;SDS011;77;48.792;9.032;2023-03-12T15:33:58;6.37;;;2.87;;
177;SDS011;77;48.792;9.032;2023-03-12T15:37:02;7.73;;;2.60;;
177;SDS011;77;48.792;9.032;2023-03-12T15:39:20;9.80;;;2.73;;
177;SDS011;77;48.792;9.032;2023-03-12T15:41:50;8.00;;;2.80;;
177;SDS011;77;48.792;9.032;2023-03-12T15:44:19;6.60;;;2.80;;
177;SDS011;77;48.792;9.032;2023-03-12T15:46:47;7.73;;;3.30;;
177;SDS011;77;48.792;9.032;2023-03-12T15:52:03;6.00;;;3.30;;
177;SDS011;77;48.792;9.032;2023-03-12T15:55:17;8.23;;;3.67;;
177;SDS011;77;48.792;9.032;2023-03-12T15:57:22;6.90;;;2.80;;
177;SDS011;77;48.792;9.032;2023-03-12T16:02:47;7.17;;;2.73;;
177;SDS011;77;48.792;9.032;2023-03-12T16:05:13;8.30;;;2.70;;
177;SDS011;77;48.792;9.032;2023-03-12T16:07:48;10.10;;;3.10;;
177;SDS011;77;48.792;9.032;2023-03-12T16:10:14;8.53;;;3.27;;
177;SDS011;77;48.792;9.032;2023-03-12T16:12:43;8.20;;;3.10;;
177;SDS011;77;48.792;9.032;2023-03-12T16:15:11;6.30;;;2.87;;
177;SDS011;77;48.792;9.032;2023-03-12T16:17:42;11.20;;;3.67;;
177;SDS011;77;48.792;9.032;2023-03-12T16:22:52;7.30;;;3.00;;
177;SDS011;77;48.792;9.032;2023-03-12T16:25:20;7.20;;;2.80;;
177;SDS011;77;48.792;9.032;2023-03-12T16:27:48;7.67;;;2.90;;
177;SDS011;77;48.792;9.032;2023-03-12T16:30:16;7.27;;;3.10;;
177;SDS011;77;48.792;9.032;2023-03-12T16:32:44;7.63;;;2.90;;
177;SDS011;77;48.792;9.032;2023-03-12T16:35:10;9.80;;;3.17;;
177;SDS011;77;48.792;9.032;2023-03-12T16:37:36;9.53;;;2.97;;